sensor_id;sensor_type;location;lat;lon;timestamp;temperature;humidity
21348;DHT22;66030;53.582;9.746;2024-02-15T00:01:22;19.40;69.50
21348;DHT22;66030;53.582;9.746;2024-02-15T00:03:50;19.40;69.50
21348;DHT22;66030;53.582;9.746;2024-02-15T00:06:19;19.40;69.50
21348;DHT22;66030;53.582;9.746;2024-02-15T00:08:47;19.40;69.50
21348;DHT22;66030;53.582;9.746;2024-02-15T00:11:16;19.30;69.50
21348;DHT22;66030;53.582;9.746;2024-02-15T00:13:46;19.30;69.60
21348;DHT22;66030;53.582;9.746;2024-02-15T00:16:14;19.30;69.60
21348;DHT22;66030;53.582;9.746;2024-02-15T00:18:42;19.30;69.60
21348;DHT22;66030;53.582;9.746;2024-02-15T00:21:10;19.30;69.60
21348;DHT22;66030;53.582;9.746;2024-02-15T00:23:38;19.30;69.60
21348;DHT22;66030;53.582;9.746;2024-02-15T00:26:08;19.30;69.60
21348;DHT22;66030;53.582;9.746;2024-02-15T00:28:41;19.20;69.60
21348;DHT22;66030;53.582;9.746;2024-02-15T00:31:10;19.20;69.70
21348;DHT22;66030;53.582;9.746;2024-02-15T00:33:38;19.20;69.80
21348;DHT22;66030;53.582;9.746;2024-02-15T00:36:07;19.20;69.80
21348;DHT22;66030;53.582;9.746;2024-02-15T00:38:35;19.20;69.90
21348;DHT22;66030;53.582;9.746;2024-02-15T00:41:05;19.10;69.80
21348;DHT22;66030;53.582;9.746;2024-02-15T00:43:34;19.10;69.90
21348;DHT22;66030;53.582;9.746;2024-02-15T00:46:03;19.10;69.90
21348;DHT22;66030;53.582;9.746;2024-02-15T00:48:32;19.10;69.90
21348;DHT22;66030;53.582;9.746;2024-02-15T00:51:00;19.10;69.90
21348;DHT22;66030;53.582;9.746;2024-02-15T00:53:29;19.10;69.90
21348;DHT22;66030;53.582;9.746;2024-02-15T00:55:57;19.10;70.00
21348;DHT22;66030;53.582;9.746;2024-02-15T00:58:25;19.10;70.00
21348;DHT22;66030;53.582;9.746;2024-02-15T01:00:54;19.10;70.10
21348;DHT22;66030;53.582;9.746;2024-02-15T01:03:21;19.10;70.10
21348;DHT22;66030;53.582;9.746;2024-02-15T01:05:51;19.00;70.10
21348;DHT22;66030;53.582;9.746;2024-02-15T01:08:19;19.00;70.10
21348;DHT22;66030;53.582;9.746;2024-02-15T01:10:47;19.00;70.10
21348;DHT22;66030;53.582;9.746;2024-02-15T01:13:15;19.00;70.10
21348;DHT22;66030;53.582;9.746;2024-02-15T01:15:43;19.00;70.10
21348;DHT22;66030;53.582;9.746;2024-02-15T01:18:11;19.00;70.20
21348;DHT22;66030;53.582;9.746;2024-02-15T01:20:39;19.00;70.20
21348;DHT22;66030;53.582;9.746;2024-02-15T01:23:08;19.00;70.10
21348;DHT22;66030;53.582;9.746;2024-02-15T01:25:36;19.00;70.20
21348;DHT22;66030;53.582;9.746;2024-02-15T01:28:06;18.90;70.20
21348;DHT22;66030;53.582;9.746;2024-02-15T01:30:34;18.90;70.20
21348;DHT22;66030;53.582;9.746;2024-02-15T01:33:03;18.90;70.20
21348;DHT22;66030;53.582;9.746;2024-02-15T01:35:31;18.90;70.20
21348;DHT22;66030;53.582;9.746;2024-02-15T01:37:59;18.90;70.20
21348;DHT22;66030;53.582;9.746;2024-02-15T01:40:27;18.90;70.30
21348;DHT22;66030;53.582;9.746;2024-02-15T01:42:56;18.90;70.20
21348;DHT22;66030;53.582;9.746;2024-02-15T01:45:25;18.90;70.30
21348;DHT22;66030;53.582;9.746;2024-02-15T01:47:54;18.90;70.30
21348;DHT22;66030;53.582;9.746;2024-02-15T01:50:23;18.90;70.30
21348;DHT22;66030;53.582;9.746;2024-02-15T01:52:53;18.90;70.30
21348;DHT22;66030;53.582;9.746;2024-02-15T01:55:22;18.90;70.30
21348;DHT22;66030;53.582;9.746;2024-02-15T01:57:51;18.90;70.30
21348;DHT22;66030;53.582;9.746;2024-02-15T02:00:20;18.90;70.30
21348;DHT22;66030;53.582;9.746;2024-02-15T02:02:48;18.80;70.30
21348;DHT22;66030;53.582;9.746;2024-02-15T02:05:17;18.80;70.30
21348;DHT22;66030;53.582;9.746;2024-02-15T02:07:45;18.80;70.40
21348;DHT22;66030;53.582;9.746;2024-02-15T02:10:13;18.80;70.40
21348;DHT22;66030;53.582;9.746;2024-02-15T02:12:42;18.80;70.40
21348;DHT22;66030;53.582;9.746;2024-02-15T02:15:11;18.80;70.30
21348;DHT22;66030;53.582;9.746;2024-02-15T02:17:39;18.80;70.40
21348;DHT22;66030;53.582;9.746;2024-02-15T02:20:08;18.80;70.50
21348;DHT22;66030;53.582;9.746;2024-02-15T02:22:41;18.80;70.40
21348;DHT22;66030;53.582;9.746;2024-02-15T02:25:14;18.80;70.40
21348;DHT22;66030;53.582;9.746;2024-02-15T02:27:42;18.80;70.50
21348;DHT22;66030;53.582;9.746;2024-02-15T02:30:13;18.70;70.50
21348;DHT22;66030;53.582;9.746;2024-02-15T02:32:44;18.70;70.60
21348;DHT22;66030;53.582;9.746;2024-02-15T02:35:13;18.70;70.60
21348;DHT22;66030;53.582;9.746;2024-02-15T02:37:43;18.70;70.60
21348;DHT22;66030;53.582;9.746;2024-02-15T02:40:11;18.70;70.60
21348;DHT22;66030;53.582;9.746;2024-02-15T02:42:52;18.70;70.50
21348;DHT22;66030;53.582;9.746;2024-02-15T02:45:23;18.70;70.70
21348;DHT22;66030;53.582;9.746;2024-02-15T02:47:52;18.70;70.60
21348;DHT22;66030;53.582;9.746;2024-02-15T02:50:21;18.70;70.50
21348;DHT22;66030;53.582;9.746;2024-02-15T02:52:50;18.70;70.70
21348;DHT22;66030;53.582;9.746;2024-02-15T02:55:18;18.70;70.70
21348;DHT22;66030;53.582;9.746;2024-02-15T02:57:47;18.70;70.60
21348;DHT22;66030;53.582;9.746;2024-02-15T03:00:17;18.70;70.70
21348;DHT22;66030;53.582;9.746;2024-02-15T03:02:47;18.70;70.70
21348;DHT22;66030;53.582;9.746;2024-02-15T03:05:15;18.60;70.80
21348;DHT22;66030;53.582;9.746;2024-02-15T03:07:43;18.60;70.70
21348;DHT22;66030;53.582;9.746;2024-02-15T03:10:12;18.60;70.70
21348;DHT22;66030;53.582;9.746;2024-02-15T03:12:41;18.60;70.70
21348;DHT22;66030;53.582;9.746;2024-02-15T03:15:16;18.60;70.70
21348;DHT22;66030;53.582;9.746;2024-02-15T03:17:47;18.60;70.70
21348;DHT22;66030;53.582;9.746;2024-02-15T03:20:16;18.60;70.70
21348;DHT22;66030;53.582;9.746;2024-02-15T03:22:53;18.60;70.70
21348;DHT22;66030;53.582;9.746;2024-02-15T03:25:21;18.60;70.80
21348;DHT22;66030;53.582;9.746;2024-02-15T03:27:51;18.60;70.70
21348;DHT22;66030;53.582;9.746;2024-02-15T03:30:22;18.60;70.70
21348;DHT22;66030;53.582;9.746;2024-02-15T03:32:50;18.60;70.80
21348;DHT22;66030;53.582;9.746;2024-02-15T03:35:20;18.60;70.80
21348;DHT22;66030;53.582;9.746;2024-02-15T03:37:49;18.50;70.70
21348;DHT22;66030;53.582;9.746;2024-02-15T03:40:19;18.60;70.80
21348;DHT22;66030;53.582;9.746;2024-02-15T03:42:47;18.60;70.80
21348;DHT22;66030;53.582;9.746;2024-02-15T03:45:17;18.60;70.80
21348;DHT22;66030;53.582;9.746;2024-02-15T03:47:46;18.50;70.80
21348;DHT22;66030;53.582;9.746;2024-02-15T03:50:17;18.60;70.80
21348;DHT22;66030;53.582;9.746;2024-02-15T03:52:46;18.50;70.90
21348;DHT22;66030;53.582;9.746;2024-02-15T03:55:14;18.50;70.90
21348;DHT22;66030;53.582;9.746;2024-02-15T03:57:42;18.50;70.90
21348;DHT22;66030;53.582;9.746;2024-02-15T04:00:12;18.50;70.90
21348;DHT22;66030;53.582;9.746;2024-02-15T04:02:42;18.50;70.90
21348;DHT22;66030;53.582;9.746;2024-02-15T04:05:12;18.50;70.90
21348;DHT22;66030;53.582;9.746;2024-02-15T04:07:40;18.50;71.00
21348;DHT22;66030;53.582;9.746;2024-02-15T04:10:08;18.50;71.00
21348;DHT22;66030;53.582;9.746;2024-02-15T04:12:36;18.50;71.00
21348;DHT22;66030;53.582;9.746;2024-02-15T04:15:06;18.50;70.90
21348;DHT22;66030;53.582;9.746;2024-02-15T04:17:39;18.50;71.00
21348;DHT22;66030;53.582;9.746;2024-02-15T04:20:09;18.50;71.10
21348;DHT22;66030;53.582;9.746;2024-02-15T04:22:40;18.50;71.00
21348;DHT22;66030;53.582;9.746;2024-02-15T04:25:10;18.50;71.00
21348;DHT22;66030;53.582;9.746;2024-02-15T04:27:44;18.50;71.00
21348;DHT22;66030;53.582;9.746;2024-02-15T04:30:12;18.50;71.00
21348;DHT22;66030;53.582;9.746;2024-02-15T04:32:42;18.50;71.00
21348;DHT22;66030;53.582;9.746;2024-02-15T04:35:10;18.50;71.10
21348;DHT22;66030;53.582;9.746;2024-02-15T04:37:42;18.50;71.10
21348;DHT22;66030;53.582;9.746;2024-02-15T04:40:10;18.50;71.00
21348;DHT22;66030;53.582;9.746;2024-02-15T04:42:40;18.50;71.10
21348;DHT22;66030;53.582;9.746;2024-02-15T04:45:10;18.40;71.00
21348;DHT22;66030;53.582;9.746;2024-02-15T04:47:42;18.40;71.10
21348;DHT22;66030;53.582;9.746;2024-02-15T04:50:12;18.40;71.00
21348;DHT22;66030;53.582;9.746;2024-02-15T04:52:41;18.40;71.00
21348;DHT22;66030;53.582;9.746;2024-02-15T04:55:12;18.40;71.00
21348;DHT22;66030;53.582;9.746;2024-02-15T04:57:42;18.40;71.10
21348;DHT22;66030;53.582;9.746;2024-02-15T05:00:10;18.40;71.10
21348;DHT22;66030;53.582;9.746;2024-02-15T05:02:42;18.40;71.20
21348;DHT22;66030;53.582;9.746;2024-02-15T05:05:11;18.40;71.20
21348;DHT22;66030;53.582;9.746;2024-02-15T05:07:42;18.40;71.10
21348;DHT22;66030;53.582;9.746;2024-02-15T05:10:10;18.50;71.00
21348;DHT22;66030;53.582;9.746;2024-02-15T05:12:39;18.50;70.90
21348;DHT22;66030;53.582;9.746;2024-02-15T05:15:08;18.60;70.70
21348;DHT22;66030;53.582;9.746;2024-02-15T05:17:39;18.70;70.50
21348;DHT22;66030;53.582;9.746;2024-02-15T05:20:10;18.70;70.30
21348;DHT22;66030;53.582;9.746;2024-02-15T05:22:42;18.80;70.20
21348;DHT22;66030;53.582;9.746;2024-02-15T05:25:16;18.80;69.90
21348;DHT22;66030;53.582;9.746;2024-02-15T05:27:50;18.90;70.20
21348;DHT22;66030;53.582;9.746;2024-02-15T05:30:20;19.00;70.40
21348;DHT22;66030;53.582;9.746;2024-02-15T05:32:48;19.00;70.60
21348;DHT22;66030;53.582;9.746;2024-02-15T05:35:17;19.10;70.50
21348;DHT22;66030;53.582;9.746;2024-02-15T05:37:46;19.10;70.50
21348;DHT22;66030;53.582;9.746;2024-02-15T05:40:14;19.20;70.40
21348;DHT22;66030;53.582;9.746;2024-02-15T05:42:43;19.20;70.50
21348;DHT22;66030;53.582;9.746;2024-02-15T05:45:29;19.30;70.70
21348;DHT22;66030;53.582;9.746;2024-02-15T05:48:06;19.30;71.00
21348;DHT22;66030;53.582;9.746;2024-02-15T05:50:35;19.40;71.50
21348;DHT22;66030;53.582;9.746;2024-02-15T05:53:05;19.40;71.90
21348;DHT22;66030;53.582;9.746;2024-02-15T05:55:34;19.50;71.80
21348;DHT22;66030;53.582;9.746;2024-02-15T05:58:04;19.50;71.60
21348;DHT22;66030;53.582;9.746;2024-02-15T06:00:32;19.50;71.60
21348;DHT22;66030;53.582;9.746;2024-02-15T06:03:01;19.50;72.00
21348;DHT22;66030;53.582;9.746;2024-02-15T06:05:30;19.50;72.00
21348;DHT22;66030;53.582;9.746;2024-02-15T06:07:58;19.60;71.90
21348;DHT22;66030;53.582;9.746;2024-02-15T06:10:27;19.60;72.30
21348;DHT22;66030;53.582;9.746;2024-02-15T06:12:56;19.50;71.90
21348;DHT22;66030;53.582;9.746;2024-02-15T06:15:25;19.40;71.70
21348;DHT22;66030;53.582;9.746;2024-02-15T06:17:53;19.40;72.00
21348;DHT22;66030;53.582;9.746;2024-02-15T06:20:21;19.40;71.90
21348;DHT22;66030;53.582;9.746;2024-02-15T06:22:52;19.40;71.90
21348;DHT22;66030;53.582;9.746;2024-02-15T06:25:20;19.50;71.80
21348;DHT22;66030;53.582;9.746;2024-02-15T06:27:50;19.50;71.80
21348;DHT22;66030;53.582;9.746;2024-02-15T06:30:25;19.50;71.70
21348;DHT22;66030;53.582;9.746;2024-02-15T06:33:16;19.60;71.50
21348;DHT22;66030;53.582;9.746;2024-02-15T06:36:06;19.60;71.40
21348;DHT22;66030;53.582;9.746;2024-02-15T06:38:51;19.60;71.40
21348;DHT22;66030;53.582;9.746;2024-02-15T06:41:37;19.50;71.40
21348;DHT22;66030;53.582;9.746;2024-02-15T06:44:07;19.50;71.70
21348;DHT22;66030;53.582;9.746;2024-02-15T06:46:35;19.50;71.70
21348;DHT22;66030;53.582;9.746;2024-02-15T06:49:03;19.50;71.50
21348;DHT22;66030;53.582;9.746;2024-02-15T06:51:35;19.60;71.40
21348;DHT22;66030;53.582;9.746;2024-02-15T06:54:03;19.60;71.50
21348;DHT22;66030;53.582;9.746;2024-02-15T06:56:30;19.60;71.40
21348;DHT22;66030;53.582;9.746;2024-02-15T06:59:03;19.50;70.60
21348;DHT22;66030;53.582;9.746;2024-02-15T07:01:32;19.30;71.10
21348;DHT22;66030;53.582;9.746;2024-02-15T07:04:01;19.40;71.40
21348;DHT22;66030;53.582;9.746;2024-02-15T07:06:30;19.40;71.40
21348;DHT22;66030;53.582;9.746;2024-02-15T07:08:58;19.50;71.20
21348;DHT22;66030;53.582;9.746;2024-02-15T07:11:26;19.50;71.10
21348;DHT22;66030;53.582;9.746;2024-02-15T07:13:54;19.60;70.90
21348;DHT22;66030;53.582;9.746;2024-02-15T07:16:23;19.60;70.80
21348;DHT22;66030;53.582;9.746;2024-02-15T07:18:53;19.60;70.70
21348;DHT22;66030;53.582;9.746;2024-02-15T07:21:21;19.60;70.60
21348;DHT22;66030;53.582;9.746;2024-02-15T07:23:53;19.60;70.50
21348;DHT22;66030;53.582;9.746;2024-02-15T07:26:23;19.60;70.40
21348;DHT22;66030;53.582;9.746;2024-02-15T07:28:52;19.60;70.30
21348;DHT22;66030;53.582;9.746;2024-02-15T07:31:21;19.70;70.20
21348;DHT22;66030;53.582;9.746;2024-02-15T07:33:50;19.70;70.20
21348;DHT22;66030;53.582;9.746;2024-02-15T07:36:20;19.70;70.10
21348;DHT22;66030;53.582;9.746;2024-02-15T07:38:49;19.70;70.00
21348;DHT22;66030;53.582;9.746;2024-02-15T07:41:17;19.70;69.90
21348;DHT22;66030;53.582;9.746;2024-02-15T07:43:46;19.70;69.90
21348;DHT22;66030;53.582;9.746;2024-02-15T07:46:14;19.70;69.90
21348;DHT22;66030;53.582;9.746;2024-02-15T07:48:43;19.70;69.90
21348;DHT22;66030;53.582;9.746;2024-02-15T07:51:13;19.70;69.80
21348;DHT22;66030;53.582;9.746;2024-02-15T07:53:43;19.70;69.80
21348;DHT22;66030;53.582;9.746;2024-02-15T07:56:12;19.70;69.70
21348;DHT22;66030;53.582;9.746;2024-02-15T07:58:41;19.70;69.70
21348;DHT22;66030;53.582;9.746;2024-02-15T08:01:09;19.70;69.70
21348;DHT22;66030;53.582;9.746;2024-02-15T08:03:37;19.70;69.70
21348;DHT22;66030;53.582;9.746;2024-02-15T08:06:09;19.70;69.70
21348;DHT22;66030;53.582;9.746;2024-02-15T08:08:40;19.70;69.70
21348;DHT22;66030;53.582;9.746;2024-02-15T08:11:10;19.70;69.60
21348;DHT22;66030;53.582;9.746;2024-02-15T08:13:43;19.70;69.60
21348;DHT22;66030;53.582;9.746;2024-02-15T08:16:12;19.70;69.50
21348;DHT22;66030;53.582;9.746;2024-02-15T08:18:43;19.70;69.40
21348;DHT22;66030;53.582;9.746;2024-02-15T08:21:12;19.70;69.40
21348;DHT22;66030;53.582;9.746;2024-02-15T08:23:41;19.70;69.40
21348;DHT22;66030;53.582;9.746;2024-02-15T08:26:10;19.70;69.20
21348;DHT22;66030;53.582;9.746;2024-02-15T08:28:38;19.70;69.20
21348;DHT22;66030;53.582;9.746;2024-02-15T08:31:06;19.80;69.20
21348;DHT22;66030;53.582;9.746;2024-02-15T08:33:35;19.80;69.10
21348;DHT22;66030;53.582;9.746;2024-02-15T08:36:05;19.80;69.10
21348;DHT22;66030;53.582;9.746;2024-02-15T08:38:34;19.80;69.00
21348;DHT22;66030;53.582;9.746;2024-02-15T08:41:03;19.80;69.00
21348;DHT22;66030;53.582;9.746;2024-02-15T08:43:35;19.80;68.90
21348;DHT22;66030;53.582;9.746;2024-02-15T08:46:05;19.80;68.80
21348;DHT22;66030;53.582;9.746;2024-02-15T08:48:34;19.80;68.80
21348;DHT22;66030;53.582;9.746;2024-02-15T08:51:03;19.80;68.70
21348;DHT22;66030;53.582;9.746;2024-02-15T08:53:32;19.80;68.80
21348;DHT22;66030;53.582;9.746;2024-02-15T08:56:00;19.80;68.70
21348;DHT22;66030;53.582;9.746;2024-02-15T08:58:28;19.80;68.60
21348;DHT22;66030;53.582;9.746;2024-02-15T09:00:58;19.80;68.60
21348;DHT22;66030;53.582;9.746;2024-02-15T09:03:26;19.80;68.60
21348;DHT22;66030;53.582;9.746;2024-02-15T09:05:54;19.80;68.50
21348;DHT22;66030;53.582;9.746;2024-02-15T09:08:22;19.80;68.50
21348;DHT22;66030;53.582;9.746;2024-02-15T09:10:50;19.90;68.50
21348;DHT22;66030;53.582;9.746;2024-02-15T09:13:19;19.90;68.40
21348;DHT22;66030;53.582;9.746;2024-02-15T09:15:47;19.90;68.30
21348;DHT22;66030;53.582;9.746;2024-02-15T09:18:17;19.90;68.20
21348;DHT22;66030;53.582;9.746;2024-02-15T09:20:46;19.90;68.20
21348;DHT22;66030;53.582;9.746;2024-02-15T09:23:15;19.90;68.20
21348;DHT22;66030;53.582;9.746;2024-02-15T09:25:43;19.90;68.20
21348;DHT22;66030;53.582;9.746;2024-02-15T09:28:11;19.90;68.20
21348;DHT22;66030;53.582;9.746;2024-02-15T09:30:40;19.90;68.20
21348;DHT22;66030;53.582;9.746;2024-02-15T09:33:08;19.90;68.20
21348;DHT22;66030;53.582;9.746;2024-02-15T09:35:37;19.90;68.20
21348;DHT22;66030;53.582;9.746;2024-02-15T09:38:05;19.90;68.20
21348;DHT22;66030;53.582;9.746;2024-02-15T09:40:35;19.90;68.10
21348;DHT22;66030;53.582;9.746;2024-02-15T09:43:03;19.90;68.10
21348;DHT22;66030;53.582;9.746;2024-02-15T09:45:31;19.90;68.10
21348;DHT22;66030;53.582;9.746;2024-02-15T09:48:02;19.90;68.10
21348;DHT22;66030;53.582;9.746;2024-02-15T09:50:34;19.90;68.10
21348;DHT22;66030;53.582;9.746;2024-02-15T09:53:05;19.90;68.10
21348;DHT22;66030;53.582;9.746;2024-02-15T09:55:35;19.90;68.10
21348;DHT22;66030;53.582;9.746;2024-02-15T09:58:03;19.90;68.10
21348;DHT22;66030;53.582;9.746;2024-02-15T10:00:32;19.90;68.10
21348;DHT22;66030;53.582;9.746;2024-02-15T10:03:02;20.00;68.00
21348;DHT22;66030;53.582;9.746;2024-02-15T10:05:33;20.00;68.00
21348;DHT22;66030;53.582;9.746;2024-02-15T10:08:04;20.00;67.90
21348;DHT22;66030;53.582;9.746;2024-02-15T10:10:34;20.00;67.90
21348;DHT22;66030;53.582;9.746;2024-02-15T10:13:02;20.00;67.90
21348;DHT22;66030;53.582;9.746;2024-02-15T10:15:31;20.00;67.80
21348;DHT22;66030;53.582;9.746;2024-02-15T10:18:01;20.00;67.70
21348;DHT22;66030;53.582;9.746;2024-02-15T10:20:30;20.00;67.70
21348;DHT22;66030;53.582;9.746;2024-02-15T10:23:12;20.00;67.70
21348;DHT22;66030;53.582;9.746;2024-02-15T10:25:44;20.10;67.60
21348;DHT22;66030;53.582;9.746;2024-02-15T10:28:13;20.10;67.60
21348;DHT22;66030;53.582;9.746;2024-02-15T10:30:43;20.10;67.60
21348;DHT22;66030;53.582;9.746;2024-02-15T10:33:19;20.10;67.50
21348;DHT22;66030;53.582;9.746;2024-02-15T10:35:48;20.10;67.60
21348;DHT22;66030;53.582;9.746;2024-02-15T10:38:17;20.10;67.50
21348;DHT22;66030;53.582;9.746;2024-02-15T10:40:46;20.10;67.50
21348;DHT22;66030;53.582;9.746;2024-02-15T10:43:16;20.10;67.40
21348;DHT22;66030;53.582;9.746;2024-02-15T10:45:45;20.10;67.40
21348;DHT22;66030;53.582;9.746;2024-02-15T10:48:16;20.10;67.40
21348;DHT22;66030;53.582;9.746;2024-02-15T10:50:45;20.10;67.40
21348;DHT22;66030;53.582;9.746;2024-02-15T10:53:23;20.10;67.40
21348;DHT22;66030;53.582;9.746;2024-02-15T10:55:59;20.10;67.40
21348;DHT22;66030;53.582;9.746;2024-02-15T10:58:32;20.10;67.40
21348;DHT22;66030;53.582;9.746;2024-02-15T11:01:05;20.10;67.40
21348;DHT22;66030;53.582;9.746;2024-02-15T11:03:36;20.20;67.40
21348;DHT22;66030;53.582;9.746;2024-02-15T11:06:09;20.10;67.40
21348;DHT22;66030;53.582;9.746;2024-02-15T11:08:40;20.20;67.40
21348;DHT22;66030;53.582;9.746;2024-02-15T11:11:08;20.20;67.30
21348;DHT22;66030;53.582;9.746;2024-02-15T11:13:38;20.20;67.30
21348;DHT22;66030;53.582;9.746;2024-02-15T11:16:06;20.10;67.30
21348;DHT22;66030;53.582;9.746;2024-02-15T11:18:45;20.10;67.40
21348;DHT22;66030;53.582;9.746;2024-02-15T11:21:16;20.20;67.30
21348;DHT22;66030;53.582;9.746;2024-02-15T11:23:46;20.20;67.30
21348;DHT22;66030;53.582;9.746;2024-02-15T11:26:42;20.20;67.40
21348;DHT22;66030;53.582;9.746;2024-02-15T11:32:40;20.10;67.30
21348;DHT22;66030;53.582;9.746;2024-02-15T11:35:11;20.10;67.30
21348;DHT22;66030;53.582;9.746;2024-02-15T11:38:05;20.10;67.40
21348;DHT22;66030;53.582;9.746;2024-02-15T11:41:06;20.10;67.30
21348;DHT22;66030;53.582;9.746;2024-02-15T11:43:51;20.10;67.30
21348;DHT22;66030;53.582;9.746;2024-02-15T11:46:24;20.20;67.30
21348;DHT22;66030;53.582;9.746;2024-02-15T11:48:53;20.10;67.30
21348;DHT22;66030;53.582;9.746;2024-02-15T11:51:31;20.20;67.30
21348;DHT22;66030;53.582;9.746;2024-02-15T11:54:05;20.20;67.30
21348;DHT22;66030;53.582;9.746;2024-02-15T11:56:49;20.20;67.40
21348;DHT22;66030;53.582;9.746;2024-02-15T11:59:21;20.10;67.30
21348;DHT22;66030;53.582;9.746;2024-02-15T12:01:58;20.20;67.30
21348;DHT22;66030;53.582;9.746;2024-02-15T12:04:44;20.10;67.40
21348;DHT22;66030;53.582;9.746;2024-02-15T12:07:30;20.20;67.40
21348;DHT22;66030;53.582;9.746;2024-02-15T12:10:17;20.20;67.40
21348;DHT22;66030;53.582;9.746;2024-02-15T12:13:03;20.20;67.40
21348;DHT22;66030;53.582;9.746;2024-02-15T12:15:58;20.20;67.40
21348;DHT22;66030;53.582;9.746;2024-02-15T12:18:45;20.20;67.50
21348;DHT22;66030;53.582;9.746;2024-02-15T12:21:21;20.20;67.50
21348;DHT22;66030;53.582;9.746;2024-02-15T12:23:50;20.20;67.50
21348;DHT22;66030;53.582;9.746;2024-02-15T12:26:19;20.20;67.40
21348;DHT22;66030;53.582;9.746;2024-02-15T12:28:51;20.30;67.30
21348;DHT22;66030;53.582;9.746;2024-02-15T12:31:22;20.30;67.30
21348;DHT22;66030;53.582;9.746;2024-02-15T12:34:02;20.20;67.30
21348;DHT22;66030;53.582;9.746;2024-02-15T12:36:33;20.20;67.30
21348;DHT22;66030;53.582;9.746;2024-02-15T12:39:05;20.20;67.30
21348;DHT22;66030;53.582;9.746;2024-02-15T12:41:38;20.20;67.30
21348;DHT22;66030;53.582;9.746;2024-02-15T12:44:09;20.20;67.30
21348;DHT22;66030;53.582;9.746;2024-02-15T12:46:38;20.20;67.30
21348;DHT22;66030;53.582;9.746;2024-02-15T12:49:09;20.20;67.30
21348;DHT22;66030;53.582;9.746;2024-02-15T12:51:40;20.20;67.30
21348;DHT22;66030;53.582;9.746;2024-02-15T12:54:09;20.20;67.30
21348;DHT22;66030;53.582;9.746;2024-02-15T12:56:37;20.20;67.30
21348;DHT22;66030;53.582;9.746;2024-02-15T12:59:06;20.20;67.20
21348;DHT22;66030;53.582;9.746;2024-02-15T13:01:35;20.20;67.20
21348;DHT22;66030;53.582;9.746;2024-02-15T13:04:03;20.20;67.20
21348;DHT22;66030;53.582;9.746;2024-02-15T13:06:33;20.30;67.30
21348;DHT22;66030;53.582;9.746;2024-02-15T13:09:03;20.20;67.10
21348;DHT22;66030;53.582;9.746;2024-02-15T13:11:32;20.20;67.10
21348;DHT22;66030;53.582;9.746;2024-02-15T13:14:01;20.20;67.10
21348;DHT22;66030;53.582;9.746;2024-02-15T13:16:31;20.20;67.10
21348;DHT22;66030;53.582;9.746;2024-02-15T13:19:00;20.20;67.20
21348;DHT22;66030;53.582;9.746;2024-02-15T13:21:30;20.20;67.20
21348;DHT22;66030;53.582;9.746;2024-02-15T13:24:00;20.20;67.20
21348;DHT22;66030;53.582;9.746;2024-02-15T13:26:31;20.20;67.20
21348;DHT22;66030;53.582;9.746;2024-02-15T13:29:00;20.20;67.20
21348;DHT22;66030;53.582;9.746;2024-02-15T13:31:28;20.20;67.30
21348;DHT22;66030;53.582;9.746;2024-02-15T13:33:57;20.20;67.30
21348;DHT22;66030;53.582;9.746;2024-02-15T13:36:27;20.20;67.20
21348;DHT22;66030;53.582;9.746;2024-02-15T13:38:55;20.20;67.20
21348;DHT22;66030;53.582;9.746;2024-02-15T13:41:24;20.20;67.20
21348;DHT22;66030;53.582;9.746;2024-02-15T13:43:52;20.20;67.20
21348;DHT22;66030;53.582;9.746;2024-02-15T13:46:20;20.20;67.30
21348;DHT22;66030;53.582;9.746;2024-02-15T13:48:48;20.30;67.50
21348;DHT22;66030;53.582;9.746;2024-02-15T13:51:16;20.30;67.50
21348;DHT22;66030;53.582;9.746;2024-02-15T13:53:46;20.30;67.30
21348;DHT22;66030;53.582;9.746;2024-02-15T13:56:14;20.30;67.30
21348;DHT22;66030;53.582;9.746;2024-02-15T13:58:43;20.30;67.30
21348;DHT22;66030;53.582;9.746;2024-02-15T14:01:11;20.30;67.30
21348;DHT22;66030;53.582;9.746;2024-02-15T14:03:41;20.30;67.30
21348;DHT22;66030;53.582;9.746;2024-02-15T14:06:10;20.30;67.40
21348;DHT22;66030;53.582;9.746;2024-02-15T14:08:38;20.30;67.40
21348;DHT22;66030;53.582;9.746;2024-02-15T14:11:07;20.30;67.40
21348;DHT22;66030;53.582;9.746;2024-02-15T14:13:35;20.30;67.40
21348;DHT22;66030;53.582;9.746;2024-02-15T14:16:05;20.30;67.40
21348;DHT22;66030;53.582;9.746;2024-02-15T14:18:34;20.30;67.50
21348;DHT22;66030;53.582;9.746;2024-02-15T14:21:03;20.30;67.50
21348;DHT22;66030;53.582;9.746;2024-02-15T14:23:31;20.30;67.70
21348;DHT22;66030;53.582;9.746;2024-02-15T14:26:00;20.20;67.70
21348;DHT22;66030;53.582;9.746;2024-02-15T14:28:30;20.20;67.70
21348;DHT22;66030;53.582;9.746;2024-02-15T14:30:59;20.20;67.80
21348;DHT22;66030;53.582;9.746;2024-02-15T14:33:44;20.20;67.80
21348;DHT22;66030;53.582;9.746;2024-02-15T14:36:13;20.20;67.80
21348;DHT22;66030;53.582;9.746;2024-02-15T14:38:41;20.20;67.80
21348;DHT22;66030;53.582;9.746;2024-02-15T14:41:09;20.20;67.80
21348;DHT22;66030;53.582;9.746;2024-02-15T14:43:42;20.20;67.90
21348;DHT22;66030;53.582;9.746;2024-02-15T14:46:10;20.20;67.90
21348;DHT22;66030;53.582;9.746;2024-02-15T14:48:38;20.20;67.90
21348;DHT22;66030;53.582;9.746;2024-02-15T14:51:08;20.20;67.90
21348;DHT22;66030;53.582;9.746;2024-02-15T14:53:37;20.20;67.90
21348;DHT22;66030;53.582;9.746;2024-02-15T14:56:06;20.20;68.20
21348;DHT22;66030;53.582;9.746;2024-02-15T14:58:34;20.20;68.10
21348;DHT22;66030;53.582;9.746;2024-02-15T15:01:04;20.30;68.10
21348;DHT22;66030;53.582;9.746;2024-02-15T15:03:36;20.30;68.00
21348;DHT22;66030;53.582;9.746;2024-02-15T15:06:07;20.30;68.00
21348;DHT22;66030;53.582;9.746;2024-02-15T15:08:53;20.40;68.00
21348;DHT22;66030;53.582;9.746;2024-02-15T15:11:41;20.40;68.00
21348;DHT22;66030;53.582;9.746;2024-02-15T15:14:27;20.40;68.00
21348;DHT22;66030;53.582;9.746;2024-02-15T15:16:56;20.30;68.00
21348;DHT22;66030;53.582;9.746;2024-02-15T15:19:27;20.40;68.10
21348;DHT22;66030;53.582;9.746;2024-02-15T15:21:55;20.40;68.00
21348;DHT22;66030;53.582;9.746;2024-02-15T15:24:23;20.40;68.00
21348;DHT22;66030;53.582;9.746;2024-02-15T15:26:51;20.40;68.10
21348;DHT22;66030;53.582;9.746;2024-02-15T15:29:19;20.40;68.00
21348;DHT22;66030;53.582;9.746;2024-02-15T15:31:46;20.40;68.00
21348;DHT22;66030;53.582;9.746;2024-02-15T15:34:16;20.40;67.90
21348;DHT22;66030;53.582;9.746;2024-02-15T15:36:46;20.40;67.90
21348;DHT22;66030;53.582;9.746;2024-02-15T15:39:14;20.40;68.00
21348;DHT22;66030;53.582;9.746;2024-02-15T15:41:44;20.40;67.90
21348;DHT22;66030;53.582;9.746;2024-02-15T15:44:12;20.40;68.00
21348;DHT22;66030;53.582;9.746;2024-02-15T15:46:40;20.40;68.20
21348;DHT22;66030;53.582;9.746;2024-02-15T15:49:09;20.40;68.20
21348;DHT22;66030;53.582;9.746;2024-02-15T15:51:42;20.50;68.30
21348;DHT22;66030;53.582;9.746;2024-02-15T15:54:10;20.50;68.20